Time;durP1;ratioP1;P1;durP2;ratioP2;P2;SDS_P1;SDS_P2;PMS_P1;PMS_P2;Temp;Humidity;BMP_temperature;BMP_pressure;BME280_temperature;BME280_humidity;BME280_pressure;Samples;Min_cycle;Max_cycle;Signal;HPM_P1;HPM_P2
2023/07/09 00:02:13;;;;;;;10.00;8.17;;;;;;;;;;5139249;27;20441;-68
2023/07/09 00:04:40;;;;;;;7.80;7.10;;;;;;;;;;5135502;27;20435;-67
2023/07/09 00:07:07;;;;;;;11.53;9.63;;;;;;;;;;5135198;27;20434;-68
2023/07/09 00:09:35;;;;;;;12.90;8.67;;;;;;;;;;5135151;27;20440;-68
2023/07/09 00:12:03;;;;;;;22.27;18.00;;;;;;;;;;5135490;27;20467;-68
2023/07/09 00:14:30;;;;;;;26.90;15.40;;;;;;;;;;5134997;27;20442;-68
2023/07/09 00:16:57;;;;;;;20.67;15.40;;;;;;;;;;5134993;27;20803;-68
2023/07/09 00:19:24;;;;;;;17.77;15.30;;;;;;;;;;5134927;27;20484;-68
2023/07/09 00:21:54;;;;;;;18.87;13.93;;;;;;;;;;5135060;27;20481;-67
2023/07/09 00:24:21;;;;;;;13.37;11.70;;;;;;;;;;5135035;27;20427;-68
2023/07/09 00:26:50;;;;;;;11.50;10.30;;;;;;;;;;5135180;27;20446;-68
2023/07/09 00:29:18;;;;;;;11.50;10.00;;;;;;;;;;5135283;27;20798;-68
2023/07/09 00:31:45;;;;;;;10.00;9.00;;;;;;;;;;5134970;27;20436;-68
2023/07/09 00:34:13;;;;;;;11.37;8.90;;;;;;;;;;5134820;27;20481;-68
2023/07/09 00:36:43;;;;;;;10.60;9.33;;;;;;;;;;5134777;27;20432;-68
2023/07/09 00:39:17;;;;;;;10.50;8.70;;;;;;;;;;5133815;27;20468;-68
2023/07/09 00:41:46;;;;;;;12.50;8.17;;;;;;;;;;5134672;27;20424;-68
2023/07/09 00:44:24;;;;;;;10.20;9.00;;;;;;;;;;5134431;27;20454;-68
2023/07/09 00:47:09;;;;;;;10.13;9.17;;;;;;;;;;5134233;27;20521;-67
2023/07/09 00:49:41;;;;;;;11.97;8.43;;;;;;;;;;5134622;27;20523;-68
2023/07/09 00:52:22;;;;;;;10.17;8.40;;;;;;;;;;5134289;27;20933;-68
2023/07/09 00:54:51;;;;;;;12.37;9.73;;;;;;;;;;5134703;27;20442;-68
2023/07/09 00:57:21;;;;;;;9.07;8.17;;;;;;;;;;5134170;27;20559;-67
2023/07/09 00:59:53;;;;;;;11.70;7.70;;;;;;;;;;5133982;27;20583;-68
2023/07/09 01:02:23;;;;;;;12.40;8.57;;;;;;;;;;5135003;27;20431;-68
2023/07/09 01:04:51;;;;;;;9.30;8.40;;;;;;;;;;5134937;27;20430;-68
2023/07/09 01:07:19;;;;;;;10.07;9.07;;;;;;;;;;5133926;27;20931;-68
2023/07/09 01:09:46;;;;;;;13.77;9.50;;;;;;;;;;5134372;27;20450;-68
2023/07/09 01:12:16;;;;;;;9.97;8.53;;;;;;;;;;5133888;27;20543;-68
2023/07/09 01:14:48;;;;;;;9.67;8.87;;;;;;;;;;5133800;27;20455;-68
2023/07/09 01:17:16;;;;;;;9.30;8.40;;;;;;;;;;5133957;27;20474;-68
2023/07/09 01:19:44;;;;;;;11.33;9.00;;;;;;;;;;5133845;27;20500;-68
2023/07/09 01:22:14;;;;;;;13.20;8.70;;;;;;;;;;5134217;27;20916;-68
2023/07/09 01:24:53;;;;;;;9.47;8.30;;;;;;;;;;5133751;27;20447;-68
2023/07/09 01:27:22;;;;;;;9.00;8.10;;;;;;;;;;5133650;27;20435;-67
2023/07/09 01:29:49;;;;;;;10.47;9.27;;;;;;;;;;5133635;27;20780;-68
2023/07/09 01:32:18;;;;;;;10.27;9.10;;;;;;;;;;5134008;27;20495;-67
2023/07/09 01:34:47;;;;;;;12.30;8.77;;;;;;;;;;5133889;27;20448;-68
2023/07/09 01:37:15;;;;;;;13.63;12.37;;;;;;;;;;5133845;27;20478;-68
2023/07/09 01:39:42;;;;;;;27.13;9.43;;;;;;;;;;5133451;28;20477;-67
2023/07/09 01:42:10;;;;;;;11.60;10.20;;;;;;;;;;5133831;27;20442;-67
2023/07/09 01:44:38;;;;;;;10.60;8.87;;;;;;;;;;5133823;28;20440;-67
2023/07/09 01:47:05;;;;;;;10.57;9.47;;;;;;;;;;5133738;27;20438;-68
2023/07/09 01:49:33;;;;;;;15.33;9.03;;;;;;;;;;5134850;27;20823;-68
2023/07/09 01:52:01;;;;;;;10.87;9.70;;;;;;;;;;5137971;27;20830;-68
2023/07/09 01:54:31;;;;;;;10.63;9.43;;;;;;;;;;5137601;27;20446;-67
2023/07/09 01:57:13;;;;;;;10.13;9.10;;;;;;;;;;5137898;27;20447;-68
2023/07/09 01:59:41;;;;;;;15.00;9.33;;;;;;;;;;5138034;27;20492;-67
2023/07/09 02:02:08;;;;;;;9.83;8.83;;;;;;;;;;5137643;27;20543;-67
2023/07/09 02:04:36;;;;;;;9.77;8.77;;;;;;;;;;5137771;27;20434;-67
2023/07/09 02:07:03;;;;;;;10.23;9.10;;;;;;;;;;5137614;27;20529;-68
2023/07/09 02:09:31;;;;;;;10.10;9.00;;;;;;;;;;5137635;27;20463;-67
2023/07/09 02:11:58;;;;;;;11.03;9.17;;;;;;;;;;5137650;27;20444;-67
2023/07/09 02:14:27;;;;;;;9.70;8.63;;;;;;;;;;5137545;27;20445;-67
2023/07/09 02:16:54;;;;;;;10.23;8.43;;;;;;;;;;5137324;27;20943;-68
2023/07/09 02:19:21;;;;;;;9.50;8.60;;;;;;;;;;5137138;27;20981;-67
2023/07/09 02:21:48;;;;;;;12.03;8.93;;;;;;;;;;5137163;27;20898;-67
2023/07/09 02:24:15;;;;;;;12.63;9.73;;;;;;;;;;5137122;27;20928;-67
2023/07/09 02:26:44;;;;;;;9.67;8.60;;;;;;;;;;5136843;27;20953;-68
2023/07/09 02:29:12;;;;;;;11.13;9.10;;;;;;;;;;5136824;27;20939;-68
2023/07/09 02:31:40;;;;;;;9.50;8.60;;;;;;;;;;5136999;27;20449;-67
2023/07/09 02:34:07;;;;;;;10.10;9.10;;;;;;;;;;5136836;27;20950;-68
2023/07/09 02:36:34;;;;;;;9.40;8.50;;;;;;;;;;5137034;27;20810;-67
2023/07/09 02:39:01;;;;;;;10.43;8.70;;;;;;;;;;5136705;27;20969;-67
2023/07/09 02:41:28;;;;;;;8.93;8.03;;;;;;;;;;5136705;27;20931;-68
2023/07/09 02:43:57;;;;;;;12.73;9.10;;;;;;;;;;5136673;27;20949;-68
2023/07/09 02:46:24;;;;;;;10.70;7.70;;;;;;;;;;5137066;27;20449;-68
2023/07/09 02:48:51;;;;;;;9.97;8.97;;;;;;;;;;5136907;27;20470;-67
2023/07/09 02:51:18;;;;;;;10.27;8.97;;;;;;;;;;5136918;27;20459;-67
2023/07/09 02:53:45;;;;;;;9.93;8.70;;;;;;;;;;5137472;27;20438;-68
2023/07/09 02:56:13;;;;;;;10.60;9.33;;;;;;;;;;5136254;27;20438;-68
2023/07/09 02:58:40;;;;;;;12.17;8.73;;;;;;;;;;5135962;27;20452;-68
2023/07/09 03:01:09;;;;;;;10.23;9.20;;;;;;;;;;5135366;27;20438;-68
2023/07/09 03:03:36;;;;;;;12.97;8.20;;;;;;;;;;5136249;27;20438;-68
2023/07/09 03:06:03;;;;;;;11.83;9.00;;;;;;;;;;5136409;27;20446;-69
2023/07/09 03:08:30;;;;;;;11.67;9.07;;;;;;;;;;5136478;27;20868;-68
2023/07/09 03:10:57;;;;;;;15.73;8.87;;;;;;;;;;5136311;27;20926;-68
2023/07/09 03:13:24;;;;;;;13.73;9.67;;;;;;;;;;5136116;27;20821;-67
2023/07/09 03:15:58;;;;;;;13.27;9.33;;;;;;;;;;5136126;27;20457;-68
2023/07/09 03:18:27;;;;;;;11.53;8.60;;;;;;;;;;5136119;27;20433;-68
2023/07/09 03:20:54;;;;;;;11.87;8.50;;;;;;;;;;5135846;27;20480;-68
2023/07/09 03:23:21;;;;;;;11.70;9.00;;;;;;;;;;5135847;27;20450;-67
2023/07/09 03:25:48;;;;;;;10.83;9.73;;;;;;;;;;5135831;27;20442;-68
2023/07/09 03:28:15;;;;;;;11.23;8.80;;;;;;;;;;5135555;27;20899;-68
2023/07/09 03:30:42;;;;;;;10.07;9.07;;;;;;;;;;5136053;27;20452;-68
2023/07/09 03:33:10;;;;;;;12.97;10.20;;;;;;;;;;5136034;27;20444;-68
2023/07/09 03:35:39;;;;;;;11.50;9.70;;;;;;;;;;5135685;27;20437;-67
2023/07/09 03:38:06;;;;;;;11.53;9.70;;;;;;;;;;5135807;27;20438;-68
2023/07/09 03:40:34;;;;;;;12.47;10.33;;;;;;;;;;5135569;27;20474;-68
2023/07/09 03:43:01;;;;;;;11.30;10.20;;;;;;;;;;5135382;27;20440;-67
2023/07/09 03:45:28;;;;;;;11.40;8.93;;;;;;;;;;5135700;27;20445;-68
2023/07/09 03:47:56;;;;;;;10.57;9.53;;;;;;;;;;5135670;27;20449;-68
2023/07/09 03:50:23;;;;;;;16.23;10.30;;;;;;;;;;5135392;27;20445;-68
2023/07/09 03:52:52;;;;;;;10.13;9.13;;;;;;;;;;5134474;27;20446;-68
2023/07/09 03:55:19;;;;;;;10.57;9.27;;;;;;;;;;5135122;27;20438;-68
2023/07/09 03:57:46;;;;;;;11.23;9.90;;;;;;;;;;5135333;27;20442;-69
2023/07/09 04:00:14;;;;;;;13.20;9.60;;;;;;;;;;5135112;27;20490;-69
2023/07/09 04:02:43;;;;;;;10.27;9.10;;;;;;;;;;5135018;27;20445;-68
2023/07/09 04:05:11;;;;;;;13.77;9.30;;;;;;;;;;5135222;27;20879;-68
2023/07/09 04:07:38;;;;;;;13.33;8.43;;;;;;;;;;5135220;27;20540;-68
2023/07/09 04:10:07;;;;;;;10.00;9.00;;;;;;;;;;5135082;27;20447;-69
2023/07/09 04:12:36;;;;;;;13.63;9.50;;;;;;;;;;5134792;27;20442;-68
2023/07/09 04:15:03;;;;;;;11.07;8.57;;;;;;;;;;5135476;27;20434;-68
2023/07/09 04:17:30;;;;;;;12.60;10.10;;;;;;;;;;5135316;27;20524;-68
2023/07/09 04:19:58;;;;;;;11.60;9.37;;;;;;;;;;5135055;27;20480;-68
2023/07/09 04:22:25;;;;;;;12.33;9.10;;;;;;;;;;5134315;27;20488;-68
2023/07/09 04:24:52;;;;;;;9.27;8.37;;;;;;;;;;5134662;27;20943;-68
2023/07/09 04:27:21;;;;;;;11.00;8.80;;;;;;;;;;5134527;27;20486;-70
2023/07/09 04:29:49;;;;;;;10.10;9.10;;;;;;;;;;5134722;27;20920;-68
2023/07/09 04:32:16;;;;;;;10.73;9.30;;;;;;;;;;5134339;27;20456;-67
2023/07/09 04:34:44;;;;;;;10.80;9.70;;;;;;;;;;5134171;27;20433;-69
2023/07/09 04:37:12;;;;;;;10.90;8.67;;;;;;;;;;5134164;27;20448;-69
2023/07/09 04:39:40;;;;;;;10.20;8.93;;;;;;;;;;5134350;27;20943;-68
2023/07/09 04:42:08;;;;;;;14.10;9.13;;;;;;;;;;5134590;27;20463;-68
2023/07/09 04:44:36;;;;;;;11.70;9.50;;;;;;;;;;5133932;27;20450;-69
2023/07/09 04:47:04;;;;;;;9.70;8.70;;;;;;;;;;5134481;27;20437;-68
2023/07/09 04:49:31;;;;;;;10.20;9.13;;;;;;;;;;5134349;27;20449;-68
2023/07/09 04:51:59;;;;;;;11.70;9.40;;;;;;;;;;5134617;27;20441;-68
2023/07/09 04:54:26;;;;;;;10.17;9.17;;;;;;;;;;5133747;27;20446;-69
2023/07/09 04:56:53;;;;;;;9.97;8.63;;;;;;;;;;5134432;27;20518;-68
2023/07/09 04:59:21;;;;;;;11.40;9.33;;;;;;;;;;5133763;27;20466;-68
2023/07/09 05:01:49;;;;;;;10.10;8.57;;;;;;;;;;5134473;27;20460;-68
2023/07/09 05:04:16;;;;;;;12.17;8.60;;;;;;;;;;5134015;27;20444;-69
2023/07/09 05:06:43;;;;;;;11.77;8.83;;;;;;;;;;5134107;27;20435;-69
2023/07/09 05:09:11;;;;;;;13.30;8.83;;;;;;;;;;5133771;27;20439;-68
2023/07/09 05:11:38;;;;;;;12.20;9.77;;;;;;;;;;5134043;27;20449;-68
2023/07/09 05:14:05;;;;;;;15.93;9.67;;;;;;;;;;5133559;27;20441;-68
2023/07/09 05:16:32;;;;;;;9.40;8.27;;;;;;;;;;5133471;27;20453;-68
2023/07/09 05:19:01;;;;;;;12.00;9.03;;;;;;;;;;5133860;27;20467;-69
2023/07/09 05:21:28;;;;;;;10.43;8.43;;;;;;;;;;5133828;28;20489;-68
2023/07/09 05:23:55;;;;;;;10.33;8.10;;;;;;;;;;5133154;27;20537;-69
2023/07/09 05:26:22;;;;;;;9.90;8.37;;;;;;;;;;5133537;28;20483;-69
2023/07/09 05:28:50;;;;;;;12.40;8.70;;;;;;;;;;5133718;28;20455;-69
2023/07/09 05:31:18;;;;;;;10.30;8.07;;;;;;;;;;5133660;28;20443;-68
2023/07/09 05:33:45;;;;;;;9.87;8.20;;;;;;;;;;5133898;28;20447;-68
2023/07/09 05:36:15;;;;;;;12.03;9.50;;;;;;;;;;5133823;28;20461;-68
2023/07/09 05:38:43;;;;;;;9.20;8.20;;;;;;;;;;5133662;28;20484;-69
2023/07/09 05:41:10;;;;;;;10.63;7.93;;;;;;;;;;5133640;28;20477;-68
2023/07/09 05:43:37;;;;;;;9.80;7.73;;;;;;;;;;5133711;28;20430;-68
2023/07/09 05:46:06;;;;;;;11.37;8.00;;;;;;;;;;5133712;28;20461;-68
2023/07/09 05:48:33;;;;;;;8.60;7.70;;;;;;;;;;5133492;28;20538;-69
2023/07/09 05:51:00;;;;;;;8.67;7.80;;;;;;;;;;5133739;28;20877;-68
2023/07/09 05:53:29;;;;;;;10.03;8.20;;;;;;;;;;5133070;28;20947;-70
2023/07/09 05:55:56;;;;;;;10.23;8.20;;;;;;;;;;5133659;28;20447;-68
2023/07/09 05:58:23;;;;;;;9.43;7.70;;;;;;;;;;5133329;28;20448;-70
2023/07/09 06:00:53;;;;;;;10.50;8.20;;;;;;;;;;5132892;28;20494;-68
2023/07/09 06:03:21;;;;;;;8.33;7.50;;;;;;;;;;5133589;28;20437;-68
2023/07/09 06:05:49;;;;;;;10.50;8.23;;;;;;;;;;5133428;28;20447;-68
2023/07/09 06:08:16;;;;;;;9.50;8.50;;;;;;;;;;5133502;28;20438;-69
2023/07/09 06:10:53;;;;;;;11.60;8.27;;;;;;;;;;5132909;28;20455;-68
2023/07/09 06:13:20;;;;;;;8.50;7.70;;;;;;;;;;5133178;28;20904;-67
2023/07/09 06:15:48;;;;;;;12.30;7.37;;;;;;;;;;5133407;28;20432;-68
2023/07/09 06:18:15;;;;;;;9.03;8.10;;;;;;;;;;5133405;28;20444;-68
2023/07/09 06:20:42;;;;;;;9.10;7.87;;;;;;;;;;5133116;28;20466;-68
2023/07/09 06:23:09;;;;;;;9.63;7.40;;;;;;;;;;5132983;28;20444;-68
2023/07/09 06:25:39;;;;;;;8.87;7.23;;;;;;;;;;5132947;28;20449;-74
2023/07/09 06:28:08;;;;;;;8.70;7.90;;;;;;;;;;5133362;28;20444;-67
2023/07/09 06:30:35;;;;;;;8.27;7.40;;;;;;;;;;5132785;28;20449;-68
2023/07/09 06:33:02;;;;;;;8.03;7.23;;;;;;;;;;5133078;28;20448;-68
2023/07/09 06:35:29;;;;;;;11.77;8.17;;;;;;;;;;5132992;27;20444;-68
2023/07/09 06:37:57;;;;;;;11.70;6.97;;;;;;;;;;5129890;27;20919;-68
2023/07/09 06:40:24;;;;;;;12.43;7.13;;;;;;;;;;5116408;28;20478;-68
2023/07/09 06:42:51;;;;;;;11.03;7.53;;;;;;;;;;5116346;28;20549;-68
2023/07/09 06:45:20;;;;;;;7.90;7.10;;;;;;;;;;5116218;28;20449;-68
2023/07/09 06:47:49;;;;;;;8.10;6.80;;;;;;;;;;5115817;28;21030;-68
2023/07/09 06:50:16;;;;;;;10.03;7.23;;;;;;;;;;5116138;28;20503;-68
2023/07/09 06:52:43;;;;;;;8.40;7.30;;;;;;;;;;5116459;28;20441;-68
2023/07/09 06:55:10;;;;;;;8.00;7.20;;;;;;;;;;5116125;28;20416;-68
2023/07/09 06:57:38;;;;;;;8.50;7.50;;;;;;;;;;5116022;28;20444;-68
2023/07/09 07:00:06;;;;;;;8.90;6.70;;;;;;;;;;5115517;28;20458;-68
2023/07/09 07:02:35;;;;;;;9.90;7.60;;;;;;;;;;5115968;28;20414;-68
2023/07/09 07:05:02;;;;;;;7.83;7.03;;;;;;;;;;5115859;28;20415;-68
2023/07/09 07:07:29;;;;;;;8.83;7.60;;;;;;;;;;5116591;27;20418;-68
2023/07/09 07:09:57;;;;;;;6.90;6.30;;;;;;;;;;5136251;27;20492;-68
2023/07/09 07:12:26;;;;;;;7.83;7.13;;;;;;;;;;5136331;27;20415;-68
2023/07/09 07:14:53;;;;;;;9.63;6.70;;;;;;;;;;5136197;27;20408;-68
2023/07/09 07:17:20;;;;;;;10.60;6.77;;;;;;;;;;5136201;27;20443;-68
2023/07/09 07:19:49;;;;;;;8.00;6.00;;;;;;;;;;5136029;27;20513;-69
2023/07/09 07:22:16;;;;;;;6.70;6.07;;;;;;;;;;5136159;27;20461;-68
2023/07/09 07:24:43;;;;;;;8.17;6.10;;;;;;;;;;5136356;27;20413;-68
2023/07/09 07:27:11;;;;;;;7.93;6.80;;;;;;;;;;5136078;27;20440;-68
2023/07/09 07:29:38;;;;;;;8.53;6.23;;;;;;;;;;5136299;27;20795;-68
2023/07/09 07:32:05;;;;;;;11.33;6.93;;;;;;;;;;5135832;27;20514;-68
2023/07/09 07:34:32;;;;;;;9.60;6.47;;;;;;;;;;5135919;27;20454;-68
2023/07/09 07:37:01;;;;;;;7.67;6.80;;;;;;;;;;5135878;27;20409;-68
2023/07/09 07:39:28;;;;;;;9.93;7.40;;;;;;;;;;5135665;27;20420;-70
2023/07/09 07:41:55;;;;;;;8.00;6.80;;;;;;;;;;5135418;27;20991;-68
2023/07/09 07:44:23;;;;;;;10.33;7.10;;;;;;;;;;5135276;27;20455;-68
2023/07/09 07:46:50;;;;;;;9.00;7.23;;;;;;;;;;5135303;27;20930;-68
2023/07/09 07:49:17;;;;;;;7.60;6.90;;;;;;;;;;5134921;27;20415;-69
2023/07/09 07:51:44;;;;;;;8.10;6.77;;;;;;;;;;5134740;27;20451;-68
2023/07/09 07:54:13;;;;;;;10.30;7.07;;;;;;;;;;5135444;27;20562;-68
2023/07/09 07:56:40;;;;;;;8.33;5.97;;;;;;;;;;5134661;27;20917;-68
2023/07/09 07:59:07;;;;;;;9.00;6.90;;;;;;;;;;5134958;27;20561;-68
2023/07/09 08:01:35;;;;;;;8.87;7.00;;;;;;;;;;5135224;27;20468;-69
2023/07/09 08:04:02;;;;;;;8.17;7.30;;;;;;;;;;5134907;27;20939;-68
2023/07/09 08:06:31;;;;;;;8.83;7.00;;;;;;;;;;5134777;27;20419;-69
2023/07/09 08:08:58;;;;;;;11.33;7.03;;;;;;;;;;5134963;27;20412;-69
2023/07/09 08:11:27;;;;;;;9.30;8.40;;;;;;;;;;5135036;27;20423;-69
2023/07/09 08:13:55;;;;;;;10.20;8.10;;;;;;;;;;5134950;27;20463;-69
2023/07/09 08:16:22;;;;;;;35.20;30.10;;;;;;;;;;5135017;27;20816;-69
2023/07/09 08:18:51;;;;;;;9.40;7.77;;;;;;;;;;5134723;27;20451;-69
2023/07/09 08:21:18;;;;;;;8.27;7.47;;;;;;;;;;5134986;27;20476;-68
2023/07/09 08:23:46;;;;;;;10.17;7.13;;;;;;;;;;5134760;27;20496;-69
2023/07/09 08:26:13;;;;;;;12.03;7.83;;;;;;;;;;5134374;27;20490;-69
2023/07/09 08:28:42;;;;;;;14.17;12.80;;;;;;;;;;5134375;27;20954;-69
2023/07/09 08:31:10;;;;;;;7.70;7.03;;;;;;;;;;5134629;27;20479;-69
2023/07/09 08:33:37;;;;;;;10.47;8.07;;;;;;;;;;5134677;27;20451;-69
2023/07/09 08:36:04;;;;;;;10.73;7.20;;;;;;;;;;5134590;27;20451;-69
2023/07/09 08:38:31;;;;;;;9.40;7.90;;;;;;;;;;5134596;27;20424;-68
2023/07/09 08:41:00;;;;;;;10.13;8.10;;;;;;;;;;5134522;27;20504;-69
2023/07/09 08:43:41;;;;;;;8.90;7.70;;;;;;;;;;5134612;27;20510;-69
2023/07/09 08:46:17;;;;;;;8.90;7.30;;;;;;;;;;5134154;27;20405;-69
2023/07/09 08:48:46;;;;;;;9.70;8.20;;;;;;;;;;5134530;27;20413;-68
2023/07/09 08:51:16;;;;;;;11.60;7.43;;;;;;;;;;5134380;27;20445;-68
2023/07/09 08:53:47;;;;;;;10.23;7.90;;;;;;;;;;5134740;27;20408;-68
2023/07/09 08:56:15;;;;;;;10.10;8.17;;;;;;;;;;5134406;27;20429;-69
2023/07/09 08:58:43;;;;;;;9.50;7.40;;;;;;;;;;5133781;27;20450;-69
2023/07/09 09:01:18;;;;;;;11.50;7.60;;;;;;;;;;5133972;27;20446;-69
2023/07/09 09:03:48;;;;;;;13.17;8.03;;;;;;;;;;5134351;27;20417;-68
2023/07/09 09:06:16;;;;;;;9.70;8.80;;;;;;;;;;5134646;27;20635;-68
2023/07/09 09:08:49;;;;;;;7.97;7.17;;;;;;;;;;5133967;27;20407;-68
2023/07/09 09:11:20;;;;;;;10.23;7.63;;;;;;;;;;5134142;27;20437;-69
2023/07/09 09:13:47;;;;;;;11.73;7.73;;;;;;;;;;5134376;27;20946;-69
2023/07/09 09:16:23;;;;;;;8.70;7.87;;;;;;;;;;5133808;27;20415;-69
2023/07/09 09:18:51;;;;;;;11.00;8.30;;;;;;;;;;5134619;27;20400;-69
2023/07/09 09:21:32;;;;;;;9.30;8.40;;;;;;;;;;5133626;27;20477;-69
2023/07/09 09:24:03;;;;;;;9.30;8.40;;;;;;;;;;5134224;27;20426;-68
2023/07/09 09:26:33;;;;;;;8.87;8.13;;;;;;;;;;5133653;27;20441;-68
2023/07/09 09:29:00;;;;;;;12.53;9.30;;;;;;;;;;5133862;27;20455;-69
2023/07/09 09:31:30;;;;;;;14.17;8.73;;;;;;;;;;5133822;27;20454;-69
2023/07/09 09:33:58;;;;;;;8.90;7.97;;;;;;;;;;5133571;28;20443;-68
2023/07/09 09:36:26;;;;;;;9.77;7.43;;;;;;;;;;5133842;27;20445;-69
2023/07/09 09:38:54;;;;;;;9.80;8.90;;;;;;;;;;5133561;27;20456;-68
2023/07/09 09:41:22;;;;;;;9.77;8.40;;;;;;;;;;5134594;27;20485;-68
2023/07/09 09:43:52;;;;;;;12.80;8.83;;;;;;;;;;5133830;27;20441;-69
2023/07/09 09:46:21;;;;;;;16.00;8.70;;;;;;;;;;5133491;27;20440;-68
2023/07/09 09:48:50;;;;;;;11.40;7.83;;;;;;;;;;5133675;27;20444;-68
2023/07/09 09:51:18;;;;;;;9.63;8.50;;;;;;;;;;5133457;27;20438;-69
2023/07/09 09:53:48;;;;;;;9.13;8.27;;;;;;;;;;5133670;27;20445;-68
2023/07/09 09:56:18;;;;;;;9.00;7.73;;;;;;;;;;5133546;27;20441;-68
2023/07/09 09:58:45;;;;;;;10.90;7.93;;;;;;;;;;5132574;27;20790;-68
2023/07/09 10:01:16;;;;;;;10.27;7.70;;;;;;;;;;5133165;28;20433;-68
2023/07/09 10:03:44;;;;;;;13.13;7.90;;;;;;;;;;5133162;28;20442;-68
2023/07/09 10:06:16;;;;;;;9.73;7.93;;;;;;;;;;5133485;28;20444;-68
2023/07/09 10:08:49;;;;;;;15.43;9.43;;;;;;;;;;5133342;28;20889;-69
2023/07/09 10:11:20;;;;;;;11.20;8.37;;;;;;;;;;5134965;27;20426;-68
2023/07/09 10:13:47;;;;;;;12.23;7.53;;;;;;;;;;5137329;27;20447;-69
2023/07/09 10:16:18;;;;;;;10.67;7.33;;;;;;;;;;5137016;27;20432;-68
2023/07/09 10:18:51;;;;;;;21.73;17.30;;;;;;;;;;5137319;27;20445;-68
2023/07/09 10:21:24;;;;;;;13.33;8.90;;;;;;;;;;5137390;27;20797;-68
2023/07/09 10:23:59;;;;;;;11.83;8.20;;;;;;;;;;5137249;27;20436;-68
2023/07/09 10:26:28;;;;;;;10.20;8.53;;;;;;;;;;5137213;27;20442;-69
2023/07/09 10:29:04;;;;;;;9.37;7.50;;;;;;;;;;5137016;27;20455;-67
2023/07/09 10:31:36;;;;;;;8.87;7.60;;;;;;;;;;5136858;27;20432;-68
2023/07/09 10:34:14;;;;;;;8.47;6.87;;;;;;;;;;5137096;27;20528;-69
2023/07/09 10:36:48;;;;;;;11.13;8.17;;;;;;;;;;5136560;27;20436;-68
2023/07/09 10:39:17;;;;;;;7.50;6.70;;;;;;;;;;5136994;27;20778;-68
2023/07/09 10:41:45;;;;;;;10.87;7.30;;;;;;;;;;5136803;27;20514;-68
2023/07/09 10:44:14;;;;;;;9.43;7.63;;;;;;;;;;5136716;27;20437;-68
2023/07/09 10:46:44;;;;;;;10.70;7.83;;;;;;;;;;5136350;27;21043;-69
2023/07/09 10:49:12;;;;;;;9.00;7.07;;;;;;;;;;5136585;27;20427;-68
2023/07/09 10:51:40;;;;;;;8.07;6.70;;;;;;;;;;5137000;27;20526;-68
2023/07/09 10:54:14;;;;;;;9.80;6.97;;;;;;;;;;5136683;27;20514;-68
2023/07/09 10:56:41;;;;;;;9.50;7.07;;;;;;;;;;5136140;27;20437;-69
2023/07/09 10:59:16;;;;;;;13.63;6.70;;;;;;;;;;5136269;27;20471;-68
2023/07/09 11:01:45;;;;;;;8.03;7.23;;;;;;;;;;5136575;27;20979;-68
2023/07/09 11:04:29;;;;;;;7.97;6.70;;;;;;;;;;5136364;27;20887;-68
2023/07/09 11:06:58;;;;;;;10.70;8.60;;;;;;;;;;5136111;27;20424;-68
2023/07/09 11:09:29;;;;;;;10.10;7.30;;;;;;;;;;5135761;27;20450;-67
2023/07/09 11:11:57;;;;;;;8.17;7.30;;;;;;;;;;5136406;27;20438;-68
2023/07/09 11:14:27;;;;;;;11.93;6.90;;;;;;;;;;5135904;27;20434;-68
2023/07/09 11:16:55;;;;;;;10.13;7.40;;;;;;;;;;5136337;27;20839;-68
2023/07/09 11:19:23;;;;;;;9.50;7.27;;;;;;;;;;5135864;27;20445;-67
2023/07/09 11:22:01;;;;;;;11.67;6.90;;;;;;;;;;5135441;27;20469;-67
2023/07/09 11:24:32;;;;;;;9.10;6.90;;;;;;;;;;5135242;27;20440;-67
2023/07/09 11:27:00;;;;;;;8.60;6.90;;;;;;;;;;5136048;27;20766;-67
2023/07/09 11:29:28;;;;;;;12.37;7.30;;;;;;;;;;5135612;27;20463;-67
2023/07/09 11:31:59;;;;;;;9.67;6.07;;;;;;;;;;5135417;27;20457;-67
2023/07/09 11:34:29;;;;;;;9.47;6.97;;;;;;;;;;5135740;27;20890;-67
2023/07/09 11:36:59;;;;;;;7.50;6.30;;;;;;;;;;5136089;27;20434;-69
2023/07/09 11:39:30;;;;;;;8.93;6.27;;;;;;;;;;5135665;27;20434;-67
2023/07/09 11:41:58;;;;;;;7.80;6.83;;;;;;;;;;5135928;27;20573;-68
2023/07/09 11:44:28;;;;;;;6.97;5.30;;;;;;;;;;5135174;27;20448;-68
2023/07/09 11:47:20;;;;;;;7.47;5.80;;;;;;;;;;5135622;27;20441;-68
2023/07/09 11:49:51;;;;;;;11.67;6.00;;;;;;;;;;5135698;27;20436;-69
2023/07/09 11:52:22;;;;;;;7.60;6.40;;;;;;;;;;5135424;27;20532;-68
2023/07/09 11:54:51;;;;;;;8.80;6.17;;;;;;;;;;5135334;27;20778;-68
2023/07/09 11:57:19;;;;;;;9.40;6.50;;;;;;;;;;5135191;27;20446;-68
2023/07/09 11:59:47;;;;;;;7.10;6.50;;;;;;;;;;5134693;27;20474;-68
2023/07/09 12:02:17;;;;;;;7.60;6.30;;;;;;;;;;5135318;27;20477;-68
2023/07/09 12:04:44;;;;;;;10.77;6.70;;;;;;;;;;5134964;27;20516;-68
2023/07/09 12:07:15;;;;;;;7.23;6.53;;;;;;;;;;5135152;27;20450;-68
2023/07/09 12:09:43;;;;;;;7.00;5.93;;;;;;;;;;5135159;27;21018;-67
2023/07/09 12:12:20;;;;;;;10.80;6.07;;;;;;;;;;5134794;27;20512;-68
2023/07/09 12:14:47;;;;;;;6.37;5.77;;;;;;;;;;5135196;27;20436;-68
2023/07/09 12:17:14;;;;;;;6.80;5.67;;;;;;;;;;5120842;27;20443;-68
2023/07/09 12:19:41;;;;;;;8.60;5.73;;;;;;;;;;5113938;28;20442;-69
2023/07/09 12:22:12;;;;;;;6.97;5.73;;;;;;;;;;5114115;28;20470;-69
2023/07/09 12:24:43;;;;;;;7.07;6.37;;;;;;;;;;5113794;28;20474;-68
2023/07/09 12:27:20;;;;;;;7.30;6.17;;;;;;;;;;5114350;28;20833;-68
2023/07/09 12:29:47;;;;;;;8.80;5.90;;;;;;;;;;5114297;28;20516;-68
2023/07/09 12:32:16;;;;;;;8.80;6.43;;;;;;;;;;5113986;28;20530;-68
2023/07/09 12:34:43;;;;;;;7.63;6.50;;;;;;;;;;5114017;28;20453;-68
2023/07/09 12:37:14;;;;;;;7.80;6.30;;;;;;;;;;5114177;28;20450;-68
2023/07/09 12:39:41;;;;;;;8.50;6.70;;;;;;;;;;5113940;28;20522;-68
2023/07/09 12:42:15;;;;;;;10.40;5.87;;;;;;;;;;5113907;28;20909;-69
2023/07/09 12:44:45;;;;;;;7.10;6.30;;;;;;;;;;5113539;28;20431;-68
2023/07/09 12:47:17;;;;;;;8.30;6.30;;;;;;;;;;5127156;27;20437;-68
2023/07/09 12:49:45;;;;;;;9.73;6.70;;;;;;;;;;5133995;27;20436;-68
2023/07/09 12:52:15;;;;;;;9.10;6.70;;;;;;;;;;5134188;27;20892;-68
2023/07/09 12:54:42;;;;;;;7.37;6.57;;;;;;;;;;5134632;27;20451;-68
2023/07/09 12:57:16;;;;;;;7.47;6.23;;;;;;;;;;5134040;27;20987;-69
2023/07/09 12:59:47;;;;;;;6.90;5.97;;;;;;;;;;5134029;27;20493;-68
2023/07/09 13:02:16;;;;;;;11.03;6.83;;;;;;;;;;5134173;27;20872;-68
2023/07/09 13:04:45;;;;;;;6.50;5.63;;;;;;;;;;5135002;27;20840;-68
2023/07/09 13:07:27;;;;;;;7.40;6.20;;;;;;;;;;5134099;27;20463;-69
2023/07/09 13:09:55;;;;;;;8.43;6.13;;;;;;;;;;5133948;27;20535;-68
2023/07/09 13:12:22;;;;;;;6.63;5.33;;;;;;;;;;5133868;27;20528;-68
2023/07/09 13:14:56;;;;;;;6.83;5.90;;;;;;;;;;5134047;27;20448;-68
2023/07/09 13:17:23;;;;;;;6.93;6.20;;;;;;;;;;5134105;27;20465;-68
2023/07/09 13:19:50;;;;;;;7.30;6.60;;;;;;;;;;5134105;27;20535;-68
2023/07/09 13:22:19;;;;;;;6.47;5.87;;;;;;;;;;5133805;27;20441;-68
2023/07/09 13:24:47;;;;;;;8.47;6.20;;;;;;;;;;5133864;28;20437;-68
2023/07/09 13:27:15;;;;;;;8.57;6.70;;;;;;;;;;5133944;28;20793;-68
2023/07/09 13:29:42;;;;;;;10.10;6.10;;;;;;;;;;5134338;28;20498;-68
2023/07/09 13:32:11;;;;;;;6.37;5.70;;;;;;;;;;5133826;28;20437;-68
2023/07/09 13:34:39;;;;;;;6.50;5.90;;;;;;;;;;5133568;28;20449;-67
2023/07/09 13:37:07;;;;;;;6.80;6.10;;;;;;;;;;5133350;28;20953;-68
2023/07/09 13:39:35;;;;;;;12.93;6.30;;;;;;;;;;5133835;28;20441;-68
2023/07/09 13:42:02;;;;;;;10.50;6.30;;;;;;;;;;5133609;28;20447;-68
2023/07/09 13:44:32;;;;;;;7.53;6.30;;;;;;;;;;5133663;28;20477;-68
2023/07/09 13:46:59;;;;;;;7.07;5.07;;;;;;;;;;5136894;27;20516;-68
2023/07/09 13:49:28;;;;;;;8.80;5.93;;;;;;;;;;5137961;27;20441;-68
2023/07/09 13:51:57;;;;;;;9.20;6.20;;;;;;;;;;5137816;27;20440;-68
2023/07/09 13:54:25;;;;;;;8.50;6.67;;;;;;;;;;5137402;27;20951;-68
2023/07/09 13:56:53;;;;;;;12.83;6.07;;;;;;;;;;5137476;27;21002;-69
2023/07/09 13:59:22;;;;;;;6.67;6.07;;;;;;;;;;5137627;27;20521;-68
2023/07/09 14:01:51;;;;;;;8.63;6.03;;;;;;;;;;5137353;27;20440;-68
2023/07/09 14:04:19;;;;;;;6.13;5.23;;;;;;;;;;5137571;27;20477;-68
2023/07/09 14:06:47;;;;;;;9.03;7.33;;;;;;;;;;5137471;27;20437;-67
2023/07/09 14:09:15;;;;;;;10.43;6.13;;;;;;;;;;5137359;27;20450;-67
2023/07/09 14:11:43;;;;;;;6.17;5.67;;;;;;;;;;5137061;27;20450;-67
2023/07/09 14:14:18;;;;;;;8.70;6.13;;;;;;;;;;5116766;27;20448;-67
2023/07/09 14:16:45;;;;;;;8.77;5.87;;;;;;;;;;5116775;28;20425;-67
2023/07/09 14:19:14;;;;;;;5.93;5.33;;;;;;;;;;5116667;28;20434;-67
2023/07/09 14:21:42;;;;;;;6.90;6.20;;;;;;;;;;5116667;28;20466;-67
2023/07/09 14:24:18;;;;;;;7.50;5.87;;;;;;;;;;5116175;28;20876;-68
2023/07/09 14:26:45;;;;;;;9.20;6.33;;;;;;;;;;5116460;28;20835;-67
2023/07/09 14:29:13;;;;;;;10.40;6.30;;;;;;;;;;5116309;28;20449;-68
2023/07/09 14:31:41;;;;;;;7.40;6.57;;;;;;;;;;5116187;28;20433;-68
2023/07/09 14:34:22;;;;;;;11.17;6.30;;;;;;;;;;5116103;28;20453;-68
2023/07/09 14:36:49;;;;;;;8.00;6.50;;;;;;;;;;5115922;28;20440;-68
2023/07/09 14:39:18;;;;;;;9.00;6.13;;;;;;;;;;5116088;28;20539;-68
2023/07/09 14:41:45;;;;;;;9.00;6.13;;;;;;;;;;5115928;28;20458;-67
2023/07/09 14:44:22;;;;;;;10.27;7.03;;;;;;;;;;5135753;27;20481;-70
2023/07/09 14:46:49;;;;;;;9.17;6.10;;;;;;;;;;5136455;27;20414;-68